ADDS TAF Board (Experimental) INFO Settings
IDs: Format: Expanded Condensed

KSAN - San Diego Intl Arpt, CA, US

Issued at 1436 UTC 01 Jul 2015
Updated at: 1654 UTC 01 Jul 2015
Time1651Z 01/17Z 01/18Z 01/19Z 01/20Z 01/21Z 01/22Z 01/23Z 02/00Z 02/01Z 02/02Z 02/03Z 02/04Z 02/05Z
Type OBS PRVL PRVL PRVL PRVL PRVL PRVL PRVL PRVL PRVL PRVL PRVL PRVL PRVL
VIS 9 >6 >6 >6 >6 >6 >6 >6 >6 >6 >6 >6 >6 >6
CIG 150 150 150 100 100 100 100 100 100 100 100 200 200 200
Cover BKN BKN BKN BKN BKN BKN BKN BKN BKN BKN BKN BKN BKN BKN
FltCat VFR VFR VFR VFR VFR VFR VFR VFR VFR VFR VFR VFR VFR VFR
WX -- -- -- VCSH VCSH VCSH VCSH VCSH VCSH VCSH VCSH -- -- --
WDir 170 VRB VRB 260 260 260 260 260 260 260 260 VRB VRB VRB
WSpd 7 6 6 8 8 8 8 8 8 8 8 4 4 4
WGst -- -- -- -- -- -- -- -- -- -- -- -- -- --
R09/27
XWnd -6 VRB VRB -4 -4 -4 -4 -4 -4 -4 -4 VRB VRB VRB
HWnd 3 VRB VRB -7 -7 -7 -7 -7 -7 -7 -7 VRB VRB VRB

NOTE: TEMPO conditions in [brackets]. Keep in mind TEMPO conditions might be better (lower impact) than prevailing conditions.

Raw TAF
KSAN 011436Z 0115/0218 VRB06KT P6SM FEW009 BKN150
  FM011900 26008KT P6SM VCSH BKN100 BKN200
  FM020300 VRB04KT P6SM FEW010 BKN200
  FM021000 VRB04KT P6SM BKN010
  FM021500 31003KT P6SM SCT010


Raw METAR
KSAN 011651Z 17007KT 9SM FEW007 BKN150 BKN220 23/18 A2994 RMK AO2 SLP138 T02330183 $
KSAN 011551Z 00000KT 10SM FEW006 BKN160 OVC220 22/18 A2993 RMK AO2 SLP134 T02170183 PNO $
KSAN 011451Z 18005KT 8SM FEW009 BKN160 BKN220 21/18 A2994 RMK AO2 SLP137 T02110183 53016 $
KSAN 011351Z COR FEW009 BKN150 BKN2200 21/18 00000KT 10SM A2992

METAR Board
Radar Display
Forecast Discussion

TAF Board Legend

Potential Impact
Threat None Slight Moderate High
Visibility (sm) ≥5.1 5.1>X≥3 3>X≥1 <1
Ceiling (100 ft) ≥30.1 30.1>X≥10 10>X≥5 <5
Wind Speed (kt) <10 10≤X<20 20≤X<30 ≥30
Wind Gust (kt) <15 15≤X<25 25≤X<35 ≥35
Weather No Wx Reported VCTS,-TS,-FZRA,SN TS,FZRA +TS,+FZRA,+SN